Latest Weather Observations for Centre Island

IDD60801

Issued at 9:31 pm CST Monday 6 February 2023 (issued every 10 minutes, with the page automatically refreshed every 10 minutes)

About weather observations | Map of weather stations | Latest weather observations for NT | Other Formats
Station Details ID: 014703 Name: CENTRE ISLAND Lat: -15.74 Lon: 136.82 Height: 12.2 m
Data from the previous 72 hours. | See also: Recent months at Centre Island
Date/Time
CST
Temp
°C
App
Temp
°C
Dew
Point
°C
Rel
Hum
%
Delta-T
°C
Wind Press
QNH
hPa
Press
MSL
hPa
Rain since
9am
mm
Dir  Spd
km/h
Gust
km/h
Spd
kts
Gust
kts
06/09:30pm 29.7 29.9 21.4 61 5.6 NE 22 28 12 15 1006.1 1006.0 0.0
06/09:00pm 29.6 30.9 22.3 65 5.0 NE 19 24 10 13 1005.8 1005.7 0.0
06/08:30pm 29.7 31.1 21.9 63 5.3 NNE 17 22 9 12 1005.7 1005.6 0.0
06/08:00pm 29.9 31.2 21.6 61 5.6 NNE 17 20 9 11 1005.6 1005.5 0.0
06/07:30pm 29.9 30.9 21.8 62 5.5 NNE 19 22 10 12 1005.3 1005.2 0.0
06/07:00pm 30.2 31.3 21.3 59 6.0 N 17 22 9 12 1005.0 1004.9 0.0
06/06:30pm 30.8 32.3 21.3 57 6.4 N 15 20 8 11 1004.8 1004.7 0.0
06/06:00pm 31.4 32.7 21.6 56 6.6 N 17 20 9 11 1004.7 1004.6 0.0
06/05:30pm 31.5 32.4 21.9 56 6.5 NNE 20 24 11 13 1004.6 1004.5 0.0
06/05:00pm 32.2 33.7 22.0 55 6.9 NNE 17 22 9 12 1004.6 1004.5 0.0
06/04:30pm 32.5 34.8 22.0 54 7.2 N 13 17 7 9 1004.7 1004.6 0.0
06/04:00pm 33.1 35.3 21.9 51 7.6 N 13 19 7 10 1004.6 1004.5 0.0
06/03:30pm 32.6 34.4 21.8 53 7.3 NNE 15 20 8 11 1004.8 1004.7 0.0
06/03:00pm 33.1 34.2 21.3 50 8.0 NNE 17 20 9 11 1005.0 1004.9 0.0
06/02:30pm 33.1 34.2 21.3 50 8.0 N 17 24 9 13 1005.0 1004.9 0.0
06/02:00pm 33.3 34.3 21.1 48 8.2 N 17 22 9 12 1005.1 1005.0 0.0
06/01:30pm 34.0 34.3 19.6 42 9.6 NNW 17 24 9 13 1005.2 1005.1 0.0
06/01:00pm 33.4 33.1 19.1 42 9.4 NNW 19 28 10 15 1005.5 1005.4 0.0
06/12:30pm 33.7 34.1 19.0 42 9.7 NNW 15 20 8 11 1005.8 1005.7 0.0
06/12:00pm 33.5 33.1 18.0 39 10.0 NNW 17 20 9 11 1006.0 1005.9 0.0
06/11:30am 33.4 33.5 17.5 38 10.2 N 13 17 7 9 1006.4 1006.3 0.0
06/11:00am 32.8 33.8 18.6 43 9.2 N 11 15 6 8 1006.7 1006.6 0.0
06/10:30am 33.0 33.8 17.2 39 10.1 WNW 9 15 5 8 1006.9 1006.8 0.0
06/10:00am 32.2 32.2 18.0 42 9.1 W 15 20 8 11 1006.7 1006.6 0.0
06/09:30am 31.6 31.4 17.5 43 9.0 WNW 15 17 8 9 1006.7 1006.6 0.0
06/09:00am 30.6 31.7 18.0 47 8.1 WNW 9 17 5 9 1006.6 1006.5 0.0
06/08:30am 29.2 29.6 18.9 53 6.7 W 15 19 8 10 1006.6 1006.5 0.0
06/08:00am 28.6 29.9 19.2 56 6.1 W 11 13 6 7 1006.6 1006.5 0.0
06/07:30am 27.8 28.7 18.5 57 6.0 WNW 11 15 6 8 1006.5 1006.4 0.0
06/07:00am 26.9 28.4 19.8 65 4.6 WNW 11 15 6 8 1006.2 1006.1 0.0
06/06:30am 26.2 28.7 21.0 73 3.4 WNW 9 11 5 6 1005.8 1005.7 0.0
06/06:00am 26.6 29.0 21.6 74 3.3 W 11 13 6 7 1005.6 1005.5 0.0
06/05:30am 27.4 29.3 21.4 70 4.0 W 13 20 7 11 1005.4 1005.3 0.0
06/05:00am 27.7 27.8 20.0 63 5.0 WSW 19 22 10 12 1005.2 1005.1 0.0
06/04:30am 27.3 28.2 21.6 71 3.8 WSW 19 20 10 11 1005.0 1004.9 0.0
06/04:00am 27.0 27.6 21.3 71 3.8 WSW 20 26 11 14 1005.2 1005.1 0.0
06/03:30am 27.2 28.5 22.6 76 3.1 WSW 20 24 11 13 1004.8 1004.7 0.0
06/03:00am 27.4 29.1 23.4 79 2.7 WSW 20 24 11 13 1004.9 1004.8 0.0
06/02:30am 27.9 30.6 22.8 74 3.5 WSW 13 17 7 9 1004.9 1004.8 0.0
06/02:00am 27.6 29.4 21.2 68 4.3 NW 13 15 7 8 1005.0 1004.9 0.0
06/01:30am 27.9 29.5 20.7 65 4.8 NW 13 17 7 9 1005.2 1005.1 0.0
06/01:00am 27.9 29.3 21.0 66 4.6 NW 15 17 8 9 1005.5 1005.4 0.0
06/12:30am 27.6 29.6 20.7 66 4.6 NW 11 15 6 8 1005.8 1005.7 0.0
06/12:00am 27.8 30.3 21.1 67 4.5 NNW 9 13 5 7 1006.1 1006.0 0.0
 
Date/Time
CST
Temp
°C
App
Temp
°C
Dew
Point
°C
Rel
Hum
%
Delta-T
°C
Wind Press
QNH
hPa
Press
MSL
hPa
Rain since
9am
mm
Dir  Spd
km/h
Gust
km/h
Spd
kts
Gust
kts
05/11:30pm 28.0 30.0 21.5 67 4.4 NNW 13 15 7 8 1006.4 1006.3 0.0
05/11:00pm 28.3 30.2 20.6 63 5.1 NNW 11 15 6 8 1006.5 1006.4 0.0
05/10:30pm 28.8 30.3 20.5 61 5.5 N 13 17 7 9 1006.4 1006.3 0.0
05/10:00pm 29.1 30.6 20.5 59 5.7 N 13 17 7 9 1006.5 1006.4 0.0
05/09:30pm 29.1 30.3 20.0 58 6.0 N 13 19 7 10 1006.2 1006.1 0.0
05/09:00pm 29.2 30.5 20.1 58 6.0 N 13 17 7 9 1005.9 1005.8 0.0
05/08:30pm 29.2 30.0 19.8 57 6.2 N 15 19 8 10 1005.8 1005.7 0.0
05/08:00pm 29.3 30.2 19.3 55 6.5 NNW 13 17 7 9 1005.5 1005.4 0.0
05/07:30pm 29.7 30.4 18.8 52 7.1 N 13 17 7 9 1005.3 1005.2 0.0
05/07:00pm 30.3 30.3 18.1 48 7.8 N 15 20 8 11 1005.0 1004.9 0.0
05/06:30pm 31.1 31.7 18.5 47 8.2 N 13 17 7 9 1004.7 1004.6 0.0
05/06:00pm 32.0 32.6 18.6 45 8.7 NNW 13 19 7 10 1004.5 1004.4 0.0
05/05:30pm 32.6 32.8 17.6 40 9.6 NNW 13 19 7 10 1004.3 1004.2 0.0
05/05:00pm 33.7 34.4 15.7 34 11.3 E 6 7 3 4 1004.2 1004.1 0.0
05/04:30pm 34.1 35.0 16.0 34 11.4 SSE 6 7 3 4 1004.1 1004.0 0.0
05/04:00pm 34.1 34.6 14.1 30 12.3 W 4 7 2 4 1004.2 1004.1 0.0
05/03:30pm 33.7 34.3 15.7 34 11.3 W 7 7 4 4 1004.2 1004.1 0.0
05/03:00pm 33.6 34.3 15.6 34 11.3 SSE 6 7 3 4 1004.5 1004.4 0.0
05/02:30pm 32.1 32.1 14.3 34 10.9 NE 7 9 4 5 1004.8 1004.7 0.0
05/02:00pm 32.3 32.7 16.2 38 10.1 ENE 9 11 5 6 1004.8 1004.7 0.0
05/01:30pm 32.4 33.2 16.3 38 10.2 ENE 7 11 4 6 1005.2 1005.1 0.0
05/01:00pm 31.4 32.9 18.0 44 8.6 ESE 7 9 4 5 1005.8 1005.7 0.0
05/12:30pm 31.1 31.9 16.3 41 9.3 SE 7 9 4 5 1006.2 1006.1 0.0
05/12:00pm 31.1 32.0 16.7 42 9.1 SE 7 9 4 5 1006.5 1006.4 0.0
05/11:30am 30.7 31.3 16.7 43 8.8 S 9 11 5 6 1006.8 1006.7 0.0
05/11:00am 30.5 31.0 16.5 43 8.8 S 9 13 5 7 1007.0 1006.9 0.0
05/10:30am 29.7 29.6 16.1 43 8.5 S 11 15 6 8 1007.4 1007.3 0.0
05/10:00am 29.7 29.0 15.4 42 8.8 SSW 13 17 7 9 1007.7 1007.6 0.0
05/09:30am 29.5 28.2 14.9 41 8.9 SSW 15 20 8 11 1007.7 1007.6 0.0
05/09:00am 28.8 27.6 15.0 43 8.4 SSW 15 17 8 9 1007.6 1007.5 0.0
05/08:30am 28.4 27.4 14.6 43 8.4 SW 13 17 7 9 1007.2 1007.1 0.0
05/08:00am 27.7 26.9 16.0 49 7.2 SSW 15 19 8 10 1007.2 1007.1 0.0
05/07:30am 27.5 26.1 15.5 48 7.3 S 17 20 9 11 1007.0 1006.9 0.0
05/07:00am 27.5 26.6 16.8 52 6.7 S 17 20 9 11 1006.9 1006.8 0.0
05/06:30am 27.1 25.6 16.4 52 6.6 S 19 22 10 12 1006.5 1006.4 0.0
05/06:00am 27.2 26.1 17.4 55 6.2 S 19 20 10 11 1006.1 1006.0 0.0
05/05:30am 27.2 25.7 17.7 56 6.0 S 22 24 12 13 1005.9 1005.8 0.0
05/05:00am 27.3 25.6 18.0 56 5.9 S 24 28 13 15 1005.7 1005.6 0.0
05/04:30am 27.6 27.1 19.1 59 5.5 SSE 20 24 11 13 1005.7 1005.6 0.0
05/04:00am 27.7 27.4 19.5 61 5.3 SSE 20 24 11 13 1005.7 1005.6 0.0
05/03:30am 27.8 27.1 19.6 61 5.3 SSE 22 26 12 14 1005.7 1005.6 0.0
05/03:00am 27.4 28.4 22.1 73 3.6 S 20 24 11 13 1005.8 1005.7 0.0
05/02:30am 27.2 28.7 23.0 78 2.9 SSW 20 24 11 13 1005.8 1005.7 0.0
05/02:00am 27.5 31.6 21.5 70 4.0 SE 2 11 1 6 1005.8 1005.7 0.0
05/01:30am 28.0 31.2 20.6 64 4.9 SE 4 9 2 5 1005.9 1005.8 0.0
05/01:00am 28.3 30.7 20.8 63 5.0 E 9 13 5 7 1006.0 1005.9 0.0
05/12:30am 28.7 30.3 20.7 62 5.3 NE 13 15 7 8 1006.1 1006.0 0.0
05/12:00am 28.7 29.7 21.0 63 5.1 NE 17 20 9 11 1006.2 1006.1 0.0
 
Date/Time
CST
Temp
°C
App
Temp
°C
Dew
Point
°C
Rel
Hum
%
Delta-T
°C
Wind Press
QNH
hPa
Press
MSL
hPa
Rain since
9am
mm
Dir  Spd
km/h
Gust
km/h
Spd
kts
Gust
kts
04/11:30pm 29.0 29.8 20.7 61 5.5 NE 17 20 9 11 1006.4 1006.3 0.0
04/11:00pm 29.1 29.6 21.1 62 5.3 NE 20 22 11 12 1006.6 1006.5 0.0
04/10:30pm 29.1 29.3 20.5 59 5.7 NE 20 26 11 14 1006.6 1006.5 0.0
04/10:00pm 29.1 29.3 20.5 59 5.7 NE 20 24 11 13 1006.5 1006.4 0.0
04/09:30pm 29.2 29.4 20.6 59 5.7 NE 20 26 11 14 1006.4 1006.3 0.0
04/09:00pm 29.2 28.6 20.4 59 5.8 NE 24 28 13 15 1006.1 1006.0 0.0
04/08:30pm 29.2 29.3 20.4 59 5.8 NE 20 26 11 14 1005.7 1005.6 0.0
04/08:00pm 29.3 28.9 20.2 58 6.0 NE 22 26 12 14 1005.4 1005.3 0.0
04/07:30pm 29.5 29.5 20.1 57 6.2 NE 20 24 11 13 1005.0 1004.9 0.0
04/07:00pm 29.8 29.5 19.5 54 6.7 NE 20 24 11 13 1004.6 1004.5 0.0
04/06:30pm 30.3 30.0 19.6 52 7.0 NE 20 26 11 14 1004.2 1004.1 0.0
04/06:00pm 30.9 31.2 19.6 51 7.4 NE 17 22 9 12 1003.9 1003.8 0.0
04/05:30pm 31.3 31.1 19.3 49 7.9 NE 19 24 10 13 1003.5 1003.4 0.0
04/05:00pm 32.2 32.0 17.7 42 9.3 ENE 15 19 8 10 1003.3 1003.2 0.0
04/04:30pm 32.2 31.7 16.9 40 9.7 ENE 15 19 8 10 1003.1 1003.0 0.0
04/04:00pm 32.9 33.2 17.9 41 9.7 ENE 13 17 7 9 1003.1 1003.0 0.0
04/03:30pm 32.9 32.2 15.4 35 10.9 E 13 17 7 9 1003.3 1003.2 0.0
04/03:00pm 32.8 32.6 15.8 36 10.7 E 11 15 6 8 1003.4 1003.3 0.0
04/02:30pm 33.1 32.3 16.0 35 10.8 E 15 17 8 9 1003.7 1003.6 0.0
04/02:00pm 33.3 31.8 15.3 34 11.2 SE 17 20 9 11 1003.9 1003.8 0.0
04/01:30pm 33.6 32.0 16.5 36 10.9 SE 20 24 11 13 1004.2 1004.1 0.0
04/01:00pm 33.2 31.1 14.8 33 11.4 SE 19 20 10 11 1004.6 1004.5 0.0
04/12:30pm 33.0 31.1 16.8 38 10.3 SE 22 28 12 15 1004.9 1004.8 0.0
04/12:00pm 32.3 30.5 17.0 40 9.7 SSE 22 26 12 14 1005.4 1005.3 0.0
04/11:30am 31.7 28.5 16.4 39 9.6 SSE 28 33 15 18 1005.8 1005.7 0.0
04/11:00am 30.7 27.1 15.2 39 9.5 SSE 28 33 15 18 1006.0 1005.9 0.0
04/10:30am 30.7 27.1 16.3 42 9.0 SSE 30 35 16 19 1006.2 1006.1 0.0
04/10:00am 30.3 26.1 15.6 41 9.1 SSE 32 37 17 20 1006.3 1006.2 0.0
04/09:30am 29.1 26.9 17.9 50 7.1 SSE 26 32 14 17 1006.2 1006.1 0.0
04/09:00am 28.6 26.4 16.8 48 7.4 SSE 24 30 13 16 1006.3 1006.2 0.0
04/08:30am 28.1 27.1 17.9 54 6.5 SSE 20 26 11 14 1006.1 1006.0 0.0
04/08:00am 27.9 27.2 18.6 57 6.0 SSE 20 24 11 13 1005.8 1005.7 0.0
04/07:30am 27.7 26.5 18.4 57 6.0 SSE 22 28 12 15 1005.6 1005.5 0.0
04/07:00am 27.2 25.5 18.2 58 5.7 S 24 26 13 14 1005.3 1005.2 0.0
04/06:30am 27.2 26.0 18.5 59 5.6 S 22 30 12 16 1004.8 1004.7 0.0
04/06:00am 27.2 26.0 18.5 59 5.6 S 22 26 12 14 1004.4 1004.3 0.0
04/05:30am 27.5 26.3 18.5 58 5.8 SSE 22 26 12 14 1004.1 1004.0 0.0
04/05:00am 27.8 27.0 18.5 57 5.9 S 20 26 11 14 1003.8 1003.7 0.0
04/04:30am 28.0 26.9 18.7 57 6.0 SSE 22 28 12 15 1003.6 1003.5 0.0
04/04:00am 28.1 27.3 18.5 56 6.1 SSE 20 24 11 13 1003.3 1003.2 0.0
04/03:30am 28.2 27.3 18.3 55 6.3 SSE 20 24 11 13 1003.2 1003.1 0.0
04/03:00am 28.2 27.8 19.4 59 5.7 SSE 20 24 11 13 1003.2 1003.1 0.0
04/02:30am 28.4 27.7 19.6 59 5.7 SSE 22 28 12 15 1003.1 1003.0 0.0
04/02:00am 28.8 27.4 18.9 55 6.4 SSE 24 30 13 16 1003.1 1003.0 0.0
04/01:30am 29.0 27.4 18.4 52 6.8 S 24 32 13 17 1003.3 1003.2 0.0
04/01:00am 29.2 27.0 18.6 52 6.8 SSW 28 32 15 17 1003.5 1003.4 0.0
04/12:30am 29.8 26.9 17.9 48 7.6 SSW 30 35 16 19 1003.7 1003.6 0.0
04/12:00am 30.0 29.5 20.0 55 6.6 SSW 22 28 12 15 1003.9 1003.8 0.0
 
Date/Time
CST
Temp
°C
App
Temp
°C
Dew
Point
°C
Rel
Hum
%
Delta-T
°C
Wind Press
QNH
hPa
Press
MSL
hPa
Rain since
9am
mm
Dir  Spd
km/h
Gust
km/h
Spd
kts
Gust
kts
03/11:30pm 28.1 32.8 24.9 83 2.2 WNW 9 11 5 6 1004.0 1003.9 0.0
03/11:00pm 28.4 33.5 25.0 82 2.4 WNW 7 11 4 6 1003.9 1003.8 0.0
03/10:30pm 28.4 33.6 24.8 81 2.5 WNW 6 7 3 4 1003.6 1003.5 0.0
03/10:00pm 28.5 33.9 24.5 79 2.8 WNW 4 6 2 3 1003.4 1003.3 0.0

Other formats

Comma delimited format used in spreadsheet applications
http://www.bom.gov.au/fwo/IDD60801/IDD60801.94248.axf

JavaScript Object Notation format (JSON) in row-major order
http://www.bom.gov.au/fwo/IDD60801/IDD60801.94248.json

Data quality

Most of these data are generated automatically and are frequently updated. Quality checks on data are not normally performed. It is possible for incorrect values to appear. Refer to information at About Latest Weather Observations and please check the disclaimer before using these data.